createdAt,value
2018-02-17T00:03:29.684Z,13.93
2018-02-17T00:08:20.645Z,16.83
2018-02-17T00:13:11.557Z,8.27
2018-02-17T00:18:02.473Z,13.27
2018-02-17T00:22:53.393Z,12.07
2018-02-17T00:27:44.301Z,15.47
2018-02-17T00:32:35.204Z,11.13
2018-02-17T00:37:26.101Z,17.37
2018-02-17T00:42:17.768Z,13.80
2018-02-17T00:47:08.705Z,12.20
2018-02-17T00:51:59.586Z,9.73
2018-02-17T00:56:51.241Z,12.90
2018-02-17T01:01:42.198Z,14.10
2018-02-17T01:06:33.130Z,12.57
2018-02-17T01:11:24.112Z,10.00
2018-02-17T01:16:15.073Z,12.93
2018-02-17T01:21:05.977Z,13.17
2018-02-17T01:25:56.875Z,10.13
2018-02-17T01:30:47.849Z,18.70
2018-02-17T01:35:38.742Z,17.67
2018-02-17T01:40:30.370Z,18.83
2018-02-17T01:45:21.276Z,16.77
2018-02-17T01:50:24.650Z,17.30
2018-02-17T01:55:16.362Z,20.23
2018-02-17T02:00:07.279Z,19.40
2018-02-17T02:04:58.185Z,19.00
2018-02-17T02:09:49.065Z,27.77
2018-02-17T02:14:40.694Z,17.20
2018-02-17T02:19:32.333Z,18.33
2018-02-17T02:24:24.056Z,19.73
2018-02-17T02:29:15.707Z,16.50
2018-02-17T02:34:07.419Z,14.03
2018-02-17T02:38:58.307Z,13.43
2018-02-17T02:43:49.228Z,19.43
2018-02-17T02:48:40.139Z,18.63
2018-02-17T02:53:31.021Z,17.30
2018-02-17T02:58:22.671Z,17.70
2018-02-17T03:03:13.579Z,19.50
2018-02-17T03:08:05.473Z,17.63
2018-02-17T03:12:56.373Z,14.30
2018-02-17T03:17:47.293Z,14.60
2018-02-17T03:22:38.193Z,19.70
2018-02-17T03:27:29.106Z,20.20
2018-02-17T03:32:20.011Z,18.17
2018-02-17T03:37:10.911Z,13.30
2018-02-17T03:42:02.563Z,18.00
2018-02-17T03:46:54.206Z,15.60
2018-02-17T03:51:45.112Z,17.10
2018-02-17T03:56:36.819Z,15.43
2018-02-17T04:01:27.727Z,16.73
2018-02-17T04:06:18.634Z,16.77
2018-02-17T04:11:09.559Z,15.53
2018-02-17T04:16:00.472Z,15.63
2018-02-17T04:20:51.366Z,15.10
2018-02-17T04:25:42.261Z,13.87
2018-02-17T04:30:33.894Z,16.67
2018-02-17T04:35:25.547Z,17.40
2018-02-17T04:40:17.421Z,21.43
2018-02-17T04:50:32.306Z,26.85
2018-02-17T04:55:26.158Z,19.00
2018-02-17T05:00:18.582Z,17.47
2018-02-17T05:05:15.635Z,16.77
2018-02-17T05:10:07.279Z,19.63
2018-02-17T05:15:03.962Z,19.20
2018-02-17T05:19:56.493Z,21.40
2018-02-17T05:24:50.420Z,20.60
2018-02-17T05:29:42.203Z,18.60
2018-02-17T05:34:39.129Z,23.23
2018-02-17T05:39:33.667Z,24.53
2018-02-17T05:44:30.561Z,20.13
2018-02-17T05:49:22.402Z,20.63
2018-02-17T05:54:13.316Z,19.10
2018-02-17T05:59:04.247Z,21.27
2018-02-17T06:03:55.889Z,25.57
2018-02-17T06:08:47.525Z,16.73
2018-02-17T06:13:39.178Z,22.70
2018-02-17T06:18:30.096Z,16.67
2018-02-17T06:23:20.986Z,16.63
2018-02-17T06:28:11.875Z,17.90
2018-02-17T06:33:02.761Z,20.07
2018-02-17T06:37:53.668Z,17.80
2018-02-17T06:42:44.613Z,16.60
2018-02-17T06:47:35.561Z,16.60
2018-02-17T06:52:26.558Z,19.70
2018-02-17T06:57:17.480Z,21.60
2018-02-17T07:02:08.371Z,20.50
2018-02-17T07:06:59.688Z,19.10
2018-02-17T07:11:50.623Z,18.27
2018-02-17T07:16:41.560Z,21.90
2018-02-17T07:21:32.446Z,17.07
2018-02-17T07:26:23.458Z,19.67
2018-02-17T07:31:14.345Z,22.40
2018-02-17T07:36:05.260Z,16.87
2018-02-17T07:40:56.142Z,19.73
2018-02-17T07:45:47.064Z,15.67
2018-02-17T07:50:37.965Z,13.30
2018-02-17T07:55:28.856Z,22.53
2018-02-17T08:00:20.510Z,21.70
2018-02-17T08:05:11.409Z,16.90
2018-02-17T08:10:03.050Z,19.23
2018-02-17T08:14:54.761Z,26.73
2018-02-17T08:19:45.669Z,20.07
2018-02-17T08:24:36.681Z,16.97
2018-02-17T08:29:27.612Z,15.10
2018-02-17T08:34:18.625Z,17.90
2018-02-17T08:39:09.551Z,19.80
2018-02-17T08:44:00.484Z,17.97
2018-02-17T08:48:52.143Z,19.10
2018-02-17T08:53:43.082Z,14.70
2018-02-17T08:58:34.054Z,14.40
2018-02-17T09:03:25.729Z,13.67
2018-02-17T09:08:16.710Z,17.07
2018-02-17T09:13:07.715Z,16.53
2018-02-17T09:17:58.613Z,18.90
2018-02-17T09:22:49.523Z,15.20
2018-02-17T09:27:40.431Z,13.27
2018-02-17T09:32:31.411Z,12.00
2018-02-17T09:37:23.140Z,11.50
2018-02-17T09:42:14.045Z,13.37
2018-02-17T09:47:04.950Z,14.87
2018-02-17T09:51:55.897Z,13.83
2018-02-17T09:56:46.943Z,12.80
2018-02-17T10:01:38.675Z,13.63
2018-02-17T10:06:30.313Z,14.87
2018-02-17T10:11:21.975Z,15.10
2018-02-17T10:16:12.910Z,15.80
2018-02-17T10:21:03.811Z,14.63
2018-02-17T10:25:54.779Z,18.70
2018-02-17T10:30:45.784Z,19.13
2018-02-17T10:35:36.728Z,16.80
2018-02-17T10:40:27.718Z,20.50
2018-02-17T10:45:18.603Z,14.53
2018-02-17T10:50:09.587Z,14.37
2018-02-17T10:55:00.466Z,14.33
2018-02-17T10:59:51.399Z,15.57
2018-02-17T11:04:43.159Z,16.70
2018-02-17T11:09:34.057Z,17.00
2018-02-17T11:14:25.025Z,17.07
2018-02-17T11:19:16.057Z,16.23
2018-02-17T11:24:07.117Z,17.60
2018-02-17T11:28:58.066Z,16.50
2018-02-17T11:33:49.733Z,13.83
2018-02-17T11:38:40.901Z,13.67
2018-02-17T11:43:31.829Z,13.67
2018-02-17T11:48:22.751Z,15.90
2018-02-17T11:53:13.657Z,12.97
2018-02-17T11:58:04.596Z,15.87
2018-02-17T12:02:56.276Z,12.80
2018-02-17T12:08:02.154Z,14.83
2018-02-17T12:12:53.051Z,15.33
2018-02-17T12:17:44.043Z,11.40
2018-02-17T12:22:35.694Z,12.30
2018-02-17T12:27:27.309Z,12.00
2018-02-17T12:32:18.206Z,12.57
2018-02-17T12:37:09.174Z,15.70
2018-02-17T12:42:00.103Z,12.67
2018-02-17T12:46:51.010Z,11.80
2018-02-17T12:51:42.004Z,11.10
2018-02-17T12:56:32.944Z,9.93
2018-02-17T13:01:24.631Z,14.07
2018-02-17T13:06:15.541Z,10.93
2018-02-17T13:11:06.484Z,9.30
2018-02-17T13:15:57.418Z,8.60
2018-02-17T13:20:49.182Z,9.77
2018-02-17T13:25:40.862Z,9.83
2018-02-17T13:30:31.917Z,9.70
2018-02-17T13:35:23.610Z,11.70
2018-02-17T13:40:14.583Z,13.97
2018-02-17T13:45:06.222Z,12.30
2018-02-17T13:49:57.860Z,15.50
2018-02-17T13:54:48.769Z,13.03
2018-02-17T13:59:40.453Z,11.30
2018-02-17T14:04:31.378Z,9.87
2018-02-17T14:09:22.286Z,13.00
2018-02-17T14:14:13.258Z,12.47
2018-02-17T14:19:04.987Z,13.33
2018-02-17T14:23:55.924Z,13.37
2018-02-17T14:28:47.595Z,14.43
2018-02-17T14:33:38.608Z,12.07
2018-02-17T14:38:29.523Z,11.70
2018-02-17T14:43:20.440Z,14.17
2018-02-17T14:48:11.358Z,15.87
2018-02-17T14:53:02.253Z,16.13
2018-02-17T14:57:53.938Z,14.80
2018-02-17T15:02:44.895Z,15.10
2018-02-17T15:07:35.860Z,20.57
2018-02-17T15:12:26.823Z,17.10
2018-02-17T15:17:17.813Z,15.27
2018-02-17T15:22:08.760Z,14.03
2018-02-17T15:26:59.687Z,13.73
2018-02-17T15:31:50.598Z,17.47
2018-02-17T15:36:41.542Z,14.77
2018-02-17T15:41:33.194Z,15.83
2018-02-17T15:46:24.173Z,17.13
2018-02-17T15:51:15.203Z,16.40
2018-02-17T15:56:06.119Z,16.80
2018-02-17T16:00:57.044Z,10.80
2018-02-17T16:05:48.690Z,13.30
2018-02-17T16:10:40.317Z,15.33
2018-02-17T16:15:31.970Z,13.80
2018-02-17T16:20:22.922Z,12.50
2018-02-17T16:25:13.818Z,12.37
2018-02-17T16:30:04.770Z,14.47
2018-02-17T16:34:55.666Z,15.90
2018-02-17T16:39:46.603Z,14.80
2018-02-17T16:44:37.536Z,16.00
2018-02-17T16:49:29.333Z,10.97
2018-02-17T16:54:20.313Z,13.67
2018-02-17T16:59:11.356Z,12.13
2018-02-17T17:04:03.058Z,11.80
2018-02-17T17:08:53.985Z,15.77
2018-02-17T17:13:44.993Z,12.90
2018-02-17T17:18:35.926Z,12.70
2018-02-17T17:23:26.933Z,11.50
2018-02-17T17:28:17.857Z,14.10
2018-02-17T17:33:08.895Z,11.70
2018-02-17T17:38:00.630Z,16.40
2018-02-17T17:42:51.621Z,15.90
2018-02-17T17:47:42.564Z,15.23
2018-02-17T17:52:33.505Z,12.43
2018-02-17T17:57:25.197Z,16.73
2018-02-17T18:02:16.082Z,13.33
2018-02-17T18:07:07.024Z,17.90
2018-02-17T18:11:57.946Z,12.30
2018-02-17T18:16:48.832Z,17.20
2018-02-17T18:21:39.741Z,13.33
2018-02-17T18:26:30.854Z,12.57
2018-02-17T18:31:22.512Z,13.83
2018-02-17T18:36:13.453Z,13.33
2018-02-17T18:41:04.396Z,15.93
2018-02-17T18:45:55.274Z,12.70
2018-02-17T18:50:46.233Z,13.93
2018-02-17T18:55:37.143Z,17.37
2018-02-17T19:00:28.076Z,14.33
2018-02-17T19:05:18.994Z,15.30
2018-02-17T19:10:09.912Z,12.63
2018-02-17T19:15:00.929Z,15.40
2018-02-17T19:19:51.855Z,14.33
2018-02-17T19:24:42.857Z,11.17
2018-02-17T19:29:33.777Z,12.13
2018-02-17T19:34:24.683Z,13.20
2018-02-17T19:39:15.588Z,13.00
2018-02-17T19:44:06.510Z,12.60
2018-02-17T19:48:57.427Z,8.50
2018-02-17T19:53:48.336Z,11.30
2018-02-17T19:58:39.286Z,11.37
2018-02-17T20:03:30.186Z,13.37
2018-02-17T20:08:21.074Z,11.50
2018-02-17T20:13:12.033Z,9.63
2018-02-17T20:18:02.942Z,14.37
2018-02-17T20:22:53.851Z,12.77
2018-02-17T20:27:44.738Z,17.20
2018-02-17T20:32:36.427Z,13.40
2018-02-17T20:37:27.338Z,9.40
2018-02-17T20:42:18.231Z,11.27
2018-02-17T20:47:09.127Z,11.90
2018-02-17T20:52:00.783Z,12.90
2018-02-17T20:56:51.678Z,10.90
2018-02-17T21:01:43.301Z,10.80
2018-02-17T21:06:34.195Z,12.83
2018-02-17T21:11:25.825Z,9.40
2018-02-17T21:16:16.715Z,10.10
2018-02-17T21:21:07.615Z,13.40
2018-02-17T21:25:58.511Z,12.37
2018-02-17T21:30:50.164Z,11.30
2018-02-17T21:35:41.122Z,10.13
2018-02-17T21:40:32.005Z,14.10
2018-02-17T21:45:22.921Z,9.50
2018-02-17T21:50:13.899Z,11.17
2018-02-17T21:55:04.901Z,16.63
2018-02-17T21:59:55.821Z,9.10
2018-02-17T22:04:46.769Z,17.80
2018-02-17T22:09:37.759Z,14.07
2018-02-17T22:14:29.531Z,13.03
2018-02-17T22:19:20.520Z,15.93
2018-02-17T22:24:11.441Z,9.73
2018-02-17T22:29:02.375Z,9.67
2018-02-17T22:33:53.257Z,8.80
2018-02-17T22:38:44.201Z,13.80
2018-02-17T22:43:35.094Z,9.63
2018-02-17T22:48:26.046Z,11.37
2018-02-17T22:53:16.947Z,12.70
2018-02-17T22:58:07.842Z,13.87
2018-02-17T23:02:58.796Z,7.90
2018-02-17T23:07:49.706Z,13.40
2018-02-17T23:12:40.663Z,12.30
2018-02-17T23:17:31.571Z,14.03
2018-02-17T23:22:22.625Z,8.83
2018-02-17T23:27:14.272Z,12.47
2018-02-17T23:32:05.183Z,10.43
2018-02-17T23:36:56.842Z,9.10
2018-02-17T23:41:47.754Z,12.33
2018-02-17T23:46:38.713Z,7.63
2018-02-17T23:51:29.610Z,7.70
2018-02-17T23:56:20.515Z,8.10
